createdAt,value
2019-06-07T00:02:02.221Z,5.03
2019-06-07T00:04:31.690Z,5.17
2019-06-07T00:07:22.350Z,5.00
2019-06-07T00:09:51.586Z,4.87
2019-06-07T00:12:22.493Z,4.85
2019-06-07T00:14:52.099Z,5.15
2019-06-07T00:17:21.327Z,4.15
2019-06-07T00:19:50.970Z,5.10
2019-06-07T00:22:32.394Z,4.28
2019-06-07T00:24:53.380Z,3.98
2019-06-07T00:27:22.852Z,4.83
2019-06-07T00:29:52.716Z,4.28
2019-06-07T00:32:22.457Z,4.65
2019-06-07T00:34:51.994Z,4.47
2019-06-07T00:37:25.150Z,4.30
2019-06-07T00:40:12.770Z,4.58
2019-06-07T00:42:24.253Z,4.70
2019-06-07T00:44:54.117Z,4.95
2019-06-07T00:47:25.742Z,4.80
2019-06-07T00:49:54.910Z,4.70
2019-06-07T00:53:11.262Z,4.78
2019-06-07T00:54:55.990Z,4.92
2019-06-07T00:57:25.447Z,5.25
2019-06-07T00:59:55.162Z,4.92
2019-06-07T01:02:29.042Z,5.00
2019-06-07T01:04:56.172Z,5.47
2019-06-07T01:07:26.031Z,4.72
2019-06-07T01:09:56.692Z,5.20
2019-06-07T01:12:27.204Z,5.55
2019-06-07T01:14:57.832Z,4.33
2019-06-07T01:18:25.971Z,4.80
2019-06-07T01:20:22.466Z,5.30
2019-06-07T01:22:50.106Z,4.95
2019-06-07T01:25:23.776Z,4.78
2019-06-07T01:27:50.995Z,4.62
2019-06-07T01:30:24.170Z,5.67
2019-06-07T01:32:52.115Z,5.08
2019-06-07T01:35:22.084Z,5.30
2019-06-07T01:37:52.670Z,4.67
2019-06-07T01:40:26.766Z,5.70
2019-06-07T01:42:53.419Z,5.67
2019-06-07T01:45:23.641Z,5.58
2019-06-07T01:48:13.921Z,6.00
2019-06-07T01:50:43.333Z,5.87
2019-06-07T01:53:12.680Z,6.00
2019-06-07T01:55:42.118Z,6.78
2019-06-07T01:58:11.764Z,7.03
2019-06-07T02:00:41.188Z,6.75
2019-06-07T02:03:10.741Z,6.83
2019-06-07T02:05:40.197Z,7.17
2019-06-07T02:08:09.485Z,7.10
2019-06-07T02:10:39.071Z,6.70
2019-06-07T02:13:08.671Z,6.85
2019-06-07T02:15:38.595Z,6.05
2019-06-07T02:18:08.155Z,7.25
2019-06-07T02:20:37.982Z,6.65
2019-06-07T02:23:09.735Z,6.70
2019-06-07T02:25:48.696Z,6.67
2019-06-07T02:28:27.363Z,6.90
2019-06-07T02:30:53.269Z,6.10
2019-06-07T02:33:16.137Z,6.75
2019-06-07T02:35:45.865Z,6.12
2019-06-07T02:38:15.570Z,6.53
2019-06-07T02:40:44.798Z,6.55
2019-06-07T02:43:14.381Z,8.10
2019-06-07T02:46:24.139Z,9.13
2019-06-07T02:48:40.059Z,8.83
2019-06-07T02:51:07.456Z,10.63
2019-06-07T02:53:40.124Z,9.28
2019-06-07T02:58:41.799Z,10.70
2019-06-07T03:01:10.132Z,10.18
2019-06-07T03:03:40.252Z,9.40
2019-06-07T03:06:11.648Z,11.38
2019-06-07T03:08:43.363Z,10.65
2019-06-07T03:11:15.012Z,10.60
2019-06-07T03:14:04.954Z,10.70
2019-06-07T03:16:37.255Z,10.68
2019-06-07T03:19:08.933Z,9.95
2019-06-07T03:21:41.707Z,10.53
2019-06-07T03:24:11.907Z,11.93
2019-06-07T03:27:32.164Z,12.95
2019-06-07T03:29:12.892Z,13.05
2019-06-07T03:31:47.625Z,12.80
2019-06-07T03:34:13.050Z,11.97
2019-06-07T03:37:03.224Z,13.38
2019-06-07T03:39:33.847Z,12.03
2019-06-07T03:42:06.691Z,13.93
2019-06-07T03:44:37.791Z,16.05
2019-06-07T03:47:05.958Z,16.10
2019-06-07T03:49:38.802Z,15.53
2019-06-07T03:52:07.911Z,16.17
2019-06-07T03:54:39.795Z,15.08
2019-06-07T03:57:08.243Z,15.25
2019-06-07T03:59:41.288Z,15.48
2019-06-07T04:02:09.312Z,17.90
2019-06-07T04:04:39.927Z,15.65
2019-06-07T04:07:09.796Z,18.20
2019-06-07T04:09:42.648Z,18.40
2019-06-07T04:12:11.707Z,17.15
2019-06-07T04:14:42.994Z,17.17
2019-06-07T04:17:12.523Z,15.70
2019-06-07T04:19:43.379Z,14.95
2019-06-07T04:22:14.049Z,14.33
2019-06-07T04:24:44.531Z,14.95
2019-06-07T04:27:15.626Z,13.80
2019-06-07T04:30:05.967Z,14.98
2019-06-07T04:32:44.154Z,15.18
2019-06-07T04:35:11.359Z,14.55
2019-06-07T04:37:42.609Z,14.03
2019-06-07T04:40:12.129Z,13.38
2019-06-07T04:42:45.428Z,13.70
2019-06-07T04:45:32.971Z,13.18
2019-06-07T04:48:05.372Z,13.35
2019-06-07T04:50:40.015Z,12.88
2019-06-07T04:53:08.601Z,13.70
2019-06-07T04:55:41.598Z,13.08
2019-06-07T04:58:11.221Z,13.32
2019-06-07T05:00:54.194Z,11.53
2019-06-07T05:03:11.161Z,13.48
2019-06-07T05:05:43.274Z,13.60
2019-06-07T05:08:27.408Z,14.90
2019-06-07T05:10:44.172Z,13.18
2019-06-07T05:13:14.046Z,13.45
2019-06-07T05:15:44.344Z,13.22
2019-06-07T05:18:14.034Z,13.03
2019-06-07T05:20:44.683Z,13.30
2019-06-07T05:23:59.338Z,13.25
2019-06-07T05:25:45.746Z,12.50
2019-06-07T05:28:15.046Z,12.63
2019-06-07T05:31:09.797Z,12.65
2019-06-07T05:33:40.738Z,11.85
2019-06-07T05:36:11.702Z,13.13
2019-06-07T05:38:44.751Z,13.65
2019-06-07T05:41:12.030Z,13.50
2019-06-07T05:44:12.804Z,13.95
2019-06-07T05:46:38.645Z,13.48
2019-06-07T05:49:05.173Z,13.20
2019-06-07T05:51:34.735Z,13.00
2019-06-07T05:54:04.094Z,11.75
2019-06-07T05:56:35.711Z,11.95
2019-06-07T05:59:04.594Z,11.95
2019-06-07T06:01:59.835Z,12.28
2019-06-07T06:04:04.557Z,12.20
2019-06-07T06:06:53.007Z,12.73
2019-06-07T06:09:22.333Z,11.18
2019-06-07T06:12:01.508Z,12.45
2019-06-07T06:14:22.886Z,11.55
2019-06-07T06:16:53.032Z,11.10
2019-06-07T06:19:22.692Z,12.73
2019-06-07T06:21:52.541Z,12.23
2019-06-07T06:24:24.099Z,12.55
2019-06-07T06:27:00.283Z,11.88
2019-06-07T06:29:25.382Z,11.65
2019-06-07T06:32:40.650Z,11.45
2019-06-07T06:34:26.739Z,11.05
2019-06-07T06:36:55.786Z,12.90
2019-06-07T06:39:26.594Z,11.55
2019-06-07T06:42:03.315Z,11.75
2019-06-07T06:44:27.043Z,10.70
2019-06-07T06:46:58.222Z,11.53
2019-06-07T06:49:28.012Z,11.73
2019-06-07T06:51:57.243Z,11.63
2019-06-07T06:57:19.084Z,10.32
2019-06-07T06:59:39.426Z,8.73
2019-06-07T07:02:17.134Z,10.23
2019-06-07T07:04:53.514Z,10.08
2019-06-07T07:07:20.402Z,10.20
2019-06-07T07:09:55.316Z,10.58
2019-06-07T07:12:29.745Z,9.28
2019-06-07T07:15:19.959Z,9.08
2019-06-07T07:18:03.733Z,10.00
2019-06-07T07:20:21.475Z,10.43
2019-06-07T07:22:56.401Z,10.18
2019-06-07T07:25:22.251Z,10.15
2019-06-07T07:27:55.274Z,10.08
2019-06-07T07:31:04.980Z,9.08
2019-06-07T07:34:20.789Z,9.48
2019-06-07T07:36:28.099Z,8.85
2019-06-07T07:38:56.616Z,8.63
2019-06-07T07:41:20.305Z,8.55
2019-06-07T07:46:29.564Z,7.90
2019-06-07T07:52:19.155Z,7.75
2019-06-07T07:54:59.155Z,7.75
2019-06-07T07:58:01.807Z,7.55
2019-06-07T08:03:22.879Z,7.00
2019-06-07T08:05:54.926Z,7.35
2019-06-07T08:08:24.501Z,7.33
2019-06-07T08:10:58.085Z,7.17
2019-06-07T08:13:27.298Z,7.97
2019-06-07T08:15:59.533Z,7.83
2019-06-07T08:18:27.827Z,7.95
2019-06-07T08:21:19.464Z,7.80
2019-06-07T08:23:27.624Z,7.87
2019-06-07T08:26:00.918Z,7.33
2019-06-07T08:28:27.659Z,7.15
2019-06-07T08:31:05.811Z,7.42
2019-06-07T08:33:28.300Z,7.50
2019-06-07T08:36:10.427Z,6.17
2019-06-07T08:38:44.970Z,6.05
2019-06-07T08:41:10.957Z,6.65
2019-06-07T08:43:30.309Z,5.47
2019-06-07T08:46:04.403Z,5.45
2019-06-07T08:48:30.590Z,5.30
2019-06-07T08:51:06.334Z,4.95
2019-06-07T08:53:30.786Z,4.40
2019-06-07T08:56:06.951Z,3.50
2019-06-07T08:58:32.346Z,2.90
2019-06-07T09:01:06.330Z,3.10
2019-06-07T09:03:33.401Z,2.50
2019-06-07T09:06:16.423Z,2.50
2019-06-07T09:08:33.901Z,2.27
2019-06-07T09:11:10.463Z,2.67
2019-06-07T09:13:34.047Z,2.25
2019-06-07T09:16:06.798Z,2.50
2019-06-07T09:18:42.970Z,2.50
2019-06-07T09:21:09.337Z,3.05
2019-06-07T09:23:35.238Z,2.92
2019-06-07T09:26:10.562Z,3.15
2019-06-07T09:28:35.752Z,2.83
2019-06-07T09:31:09.851Z,2.70
2019-06-07T09:33:35.937Z,2.58
2019-06-07T09:36:09.744Z,2.67
2019-06-07T09:38:36.008Z,3.50
2019-06-07T09:41:07.423Z,2.83
2019-06-07T09:46:12.949Z,2.75
2019-06-07T09:51:19.501Z,2.60
2019-06-07T09:53:39.175Z,2.60
2019-06-07T09:56:11.704Z,2.60
2019-06-07T09:58:54.596Z,2.65
2019-06-07T10:01:13.522Z,2.95
2019-06-07T10:03:40.630Z,3.30
2019-06-07T10:06:13.587Z,3.40
2019-06-07T10:09:57.102Z,2.55
2019-06-07T10:11:13.696Z,2.20
2019-06-07T10:13:43.010Z,2.60
2019-06-07T10:16:13.044Z,2.70
2019-06-07T10:18:42.729Z,2.60
2019-06-07T10:21:15.151Z,2.37
2019-06-07T10:23:43.485Z,2.10
2019-06-07T10:26:13.402Z,1.90
2019-06-07T10:28:42.928Z,1.90
2019-06-07T10:31:12.255Z,2.10
2019-06-07T10:33:43.052Z,2.12
2019-06-07T10:36:13.196Z,1.82
2019-06-07T10:38:42.667Z,2.35
2019-06-07T10:41:12.133Z,2.72
2019-06-07T10:43:42.964Z,2.50
2019-06-07T10:46:13.137Z,2.52
2019-06-07T10:48:43.631Z,2.30
2019-06-07T10:51:14.766Z,2.30
2019-06-07T10:53:45.322Z,2.12
2019-06-07T10:56:16.121Z,1.90
2019-06-07T10:58:46.532Z,2.00
2019-06-07T11:01:16.885Z,2.40
2019-06-07T11:03:46.552Z,2.65
2019-06-07T11:06:15.832Z,2.50
2019-06-07T11:08:45.913Z,3.00
2019-06-07T11:11:15.741Z,2.60
2019-06-07T11:13:45.916Z,2.77
2019-06-07T11:16:15.688Z,2.05
2019-06-07T11:18:46.074Z,2.30
2019-06-07T11:21:15.592Z,2.30
2019-06-07T11:23:45.574Z,2.25
2019-06-07T11:26:15.344Z,2.40
2019-06-07T11:28:44.947Z,2.05
2019-06-07T11:31:15.244Z,1.80
2019-06-07T11:33:45.345Z,2.12
2019-06-07T11:36:15.287Z,2.22
2019-06-07T11:38:45.364Z,2.05
2019-06-07T11:41:15.849Z,2.12
2019-06-07T11:43:46.413Z,1.80
2019-06-07T11:46:17.275Z,2.40
2019-06-07T11:48:46.959Z,2.30
2019-06-07T11:51:16.638Z,2.35
2019-06-07T11:53:46.989Z,2.10
2019-06-07T11:56:18.135Z,2.50
2019-06-07T11:58:48.236Z,2.17
2019-06-07T12:01:19.517Z,1.90
2019-06-07T12:03:48.781Z,2.00
2019-06-07T12:06:19.075Z,2.30
2019-06-07T12:08:49.453Z,2.30
2019-06-07T12:11:19.114Z,2.00
2019-06-07T12:13:49.662Z,1.98
2019-06-07T12:16:26.023Z,1.90
2019-06-07T12:18:56.068Z,1.90
2019-06-07T12:21:26.635Z,2.25
2019-06-07T12:23:56.414Z,1.90
2019-06-07T12:26:27.436Z,1.95
2019-06-07T12:28:59.830Z,2.30
2019-06-07T12:31:29.621Z,1.92
2019-06-07T12:33:59.777Z,2.30
2019-06-07T12:36:29.741Z,2.00
2019-06-07T12:38:59.833Z,1.98
2019-06-07T12:41:33.082Z,1.82
2019-06-07T12:44:03.521Z,2.12
2019-06-07T12:46:33.869Z,2.00
2019-06-07T12:49:03.691Z,2.02
2019-06-07T12:51:33.712Z,2.40
2019-06-07T12:54:05.053Z,2.08
2019-06-07T12:56:35.198Z,2.20
2019-06-07T12:59:06.493Z,2.30
2019-06-07T13:01:36.131Z,2.17
2019-06-07T13:04:07.052Z,1.87
2019-06-07T13:06:37.504Z,2.30
2019-06-07T13:09:07.987Z,2.25
2019-06-07T13:11:37.737Z,2.42
2019-06-07T13:14:29.327Z,2.27
2019-06-07T13:16:59.583Z,2.02
2019-06-07T13:19:31.165Z,1.90
2019-06-07T13:22:22.295Z,1.75
2019-06-07T13:24:51.837Z,2.10
2019-06-07T13:27:22.474Z,1.98
2019-06-07T13:30:13.745Z,2.10
2019-06-07T13:32:44.220Z,2.25
2019-06-07T13:35:16.326Z,1.82
2019-06-07T13:37:49.389Z,2.02
2019-06-07T13:40:21.184Z,2.12
2019-06-07T13:42:52.086Z,2.08
2019-06-07T13:45:22.398Z,2.20
2019-06-07T13:47:53.835Z,2.12
2019-06-07T13:50:46.303Z,1.90
2019-06-07T13:53:16.473Z,2.05
2019-06-07T13:56:07.862Z,2.00
2019-06-07T13:58:59.865Z,2.00
2019-06-07T14:01:31.756Z,1.90
2019-06-07T14:07:40.580Z,2.22
2019-06-07T14:10:11.546Z,2.20
2019-06-07T14:12:39.976Z,2.20
2019-06-07T14:15:09.538Z,2.05
2019-06-07T14:17:38.225Z,2.20
2019-06-07T14:20:08.134Z,2.00
2019-06-07T14:22:37.763Z,2.20
2019-06-07T14:25:10.262Z,2.20
2019-06-07T14:27:38.948Z,2.52
2019-06-07T14:30:08.957Z,1.80
2019-06-07T14:32:37.616Z,2.17
2019-06-07T14:35:08.860Z,2.10
2019-06-07T14:37:37.575Z,2.10
2019-06-07T14:40:08.502Z,2.00
2019-06-07T14:42:37.216Z,2.12
2019-06-07T14:45:06.820Z,2.20
2019-06-07T14:47:35.454Z,2.05
2019-06-07T14:50:05.534Z,2.45
2019-06-07T14:52:36.788Z,2.30
2019-06-07T14:55:09.114Z,2.37
2019-06-07T14:57:38.162Z,2.30
2019-06-07T15:00:34.553Z,2.20
2019-06-07T15:03:03.294Z,2.33
2019-06-07T15:05:32.912Z,2.42
2019-06-07T15:08:01.494Z,2.72
2019-06-07T15:10:31.907Z,2.70
2019-06-07T15:13:00.281Z,2.80
2019-06-07T15:15:28.889Z,2.27
2019-06-07T15:17:57.528Z,2.70
2019-06-07T15:20:26.094Z,2.67
2019-06-07T15:22:54.641Z,3.35
2019-06-07T15:25:23.226Z,2.75
2019-06-07T15:27:51.812Z,2.62
2019-06-07T15:30:20.617Z,2.95
2019-06-07T15:32:49.171Z,3.08
2019-06-07T15:35:18.361Z,2.92
2019-06-07T15:37:47.012Z,2.85
2019-06-07T15:40:15.794Z,2.65
2019-06-07T15:42:52.830Z,3.15
2019-06-07T15:45:19.961Z,3.33
2019-06-07T15:47:49.107Z,3.40
2019-06-07T15:50:38.410Z,2.92
2019-06-07T15:53:07.193Z,3.30
2019-06-07T15:55:39.581Z,3.27
2019-06-07T15:58:33.099Z,2.90
2019-06-07T16:01:22.154Z,2.90
2019-06-07T16:04:23.032Z,3.42
2019-06-07T16:07:18.719Z,3.42
2019-06-07T16:13:27.554Z,3.25
2019-06-07T16:16:29.150Z,3.35
2019-06-07T16:19:23.722Z,3.80
2019-06-07T16:22:44.005Z,3.80
2019-06-07T16:44:16.108Z,4.00
2019-06-07T16:47:14.469Z,4.17
2019-06-07T16:50:24.285Z,3.85
2019-06-07T16:55:42.711Z,4.22
2019-06-07T16:58:12.429Z,4.28
2019-06-07T17:00:42.152Z,3.67
2019-06-07T17:03:11.214Z,4.20
2019-06-07T17:05:43.360Z,4.12
2019-06-07T17:08:10.185Z,3.92
2019-06-07T17:10:40.098Z,4.08
2019-06-07T17:13:09.052Z,4.10
2019-06-07T17:15:38.615Z,4.83
2019-06-07T17:18:07.457Z,3.92
2019-06-07T17:20:39.005Z,4.33
2019-06-07T17:23:07.744Z,4.35
2019-06-07T17:25:36.363Z,4.20
2019-06-07T17:28:05.360Z,4.10
2019-06-07T17:30:34.150Z,3.98
2019-06-07T17:33:02.793Z,4.40
2019-06-07T17:35:32.129Z,4.37
2019-06-07T17:38:00.802Z,4.67
2019-06-07T17:40:30.512Z,4.53
2019-06-07T17:42:59.159Z,4.50
2019-06-07T17:45:27.776Z,4.53
2019-06-07T17:47:56.422Z,4.83
2019-06-07T17:50:25.186Z,4.42
2019-06-07T17:52:55.984Z,4.15
2019-06-07T17:55:26.099Z,4.40
2019-06-07T17:57:55.367Z,4.72
2019-06-07T18:00:28.568Z,4.50
2019-06-07T18:02:56.678Z,4.50
2019-06-07T18:05:25.367Z,4.70
2019-06-07T18:07:54.983Z,4.58
2019-06-07T18:10:39.847Z,4.80
2019-06-07T18:13:08.741Z,4.60
2019-06-07T18:15:40.391Z,4.58
2019-06-07T18:18:09.542Z,4.42
2019-06-07T18:20:38.352Z,4.87
2019-06-07T18:23:07.088Z,4.70
2019-06-07T18:25:36.087Z,5.25
2019-06-07T18:28:07.102Z,4.72
2019-06-07T18:30:36.119Z,4.72
2019-06-07T18:33:05.386Z,5.00
2019-06-07T18:35:34.602Z,4.70
2019-06-07T18:38:03.424Z,5.10
2019-06-07T18:40:32.068Z,4.97
2019-06-07T18:43:00.640Z,5.53
2019-06-07T18:45:29.700Z,4.95
2019-06-07T18:47:58.271Z,5.03
2019-06-07T18:50:26.900Z,5.75
2019-06-07T18:52:55.561Z,5.62
2019-06-07T18:55:24.116Z,5.40
2019-06-07T18:57:52.666Z,5.97
2019-06-07T19:00:23.651Z,6.15
2019-06-07T19:02:52.265Z,6.00
2019-06-07T19:05:21.454Z,6.80
2019-06-07T19:07:50.437Z,6.28
2019-06-07T19:10:20.308Z,7.05
2019-06-07T19:12:49.007Z,6.67
2019-06-07T19:15:19.596Z,5.20
2019-06-07T19:17:48.204Z,5.30
2019-06-07T19:20:20.125Z,4.90
2019-06-07T19:22:49.991Z,4.08
2019-06-07T19:25:18.822Z,3.85
2019-06-07T19:27:48.057Z,4.12
2019-06-07T19:30:17.399Z,3.87
2019-06-07T19:32:49.362Z,4.30
2019-06-07T19:38:12.504Z,2.17
2019-06-07T19:40:41.109Z,2.25
2019-06-07T19:43:09.643Z,2.60
2019-06-07T19:45:38.505Z,2.40
2019-06-07T19:48:07.493Z,2.60
2019-06-07T19:50:36.193Z,2.70
2019-06-07T19:53:05.100Z,2.80
2019-06-07T19:55:33.942Z,2.20
2019-06-07T19:58:03.821Z,2.47
2019-06-07T20:00:32.631Z,2.37
2019-06-07T20:03:02.235Z,2.40
2019-06-07T20:05:33.830Z,1.50
2019-06-07T20:08:02.821Z,1.10
2019-06-07T20:10:31.393Z,1.00
2019-06-07T20:13:00.817Z,1.20
2019-06-07T20:15:29.871Z,1.35
2019-06-07T20:17:59.267Z,0.60
2019-06-07T20:20:30.109Z,0.85
2019-06-07T20:22:59.152Z,0.60
2019-06-07T20:25:29.555Z,0.70
2019-06-07T20:27:59.577Z,0.50
2019-06-07T20:30:28.333Z,0.65
2019-06-07T20:32:57.650Z,0.50
2019-06-07T20:35:26.442Z,0.60
2019-06-07T20:37:56.739Z,0.65
2019-06-07T20:40:26.272Z,0.90
2019-06-07T20:42:54.867Z,0.78
2019-06-07T20:45:33.279Z,0.80
2019-06-07T20:47:53.791Z,1.20
2019-06-07T20:50:22.346Z,0.70
2019-06-07T20:52:50.893Z,1.00
2019-06-07T20:55:19.567Z,0.50
2019-06-07T20:57:48.099Z,0.50
2019-06-07T21:00:21.642Z,0.80
2019-06-07T21:02:47.805Z,0.60
2019-06-07T21:05:16.434Z,0.72
2019-06-07T21:07:44.915Z,0.65
2019-06-07T21:10:13.696Z,0.70
2019-06-07T21:12:42.262Z,0.68
2019-06-07T21:15:14.302Z,0.60
2019-06-07T21:17:42.242Z,0.65
2019-06-07T21:20:14.234Z,0.70
2019-06-07T21:22:41.350Z,0.60
2019-06-07T21:25:11.549Z,1.00
2019-06-07T21:27:40.400Z,0.88
2019-06-07T21:30:11.595Z,0.70
2019-06-07T21:32:42.060Z,1.02
2019-06-07T21:35:12.235Z,0.98
2019-06-07T21:37:41.193Z,1.45
2019-06-07T21:40:10.533Z,1.02
2019-06-07T21:42:39.082Z,1.22
2019-06-07T21:45:09.916Z,1.17
2019-06-07T21:47:38.867Z,1.40
2019-06-07T21:52:58.770Z,1.02
2019-06-07T21:55:27.312Z,1.02
2019-06-07T21:57:55.927Z,0.70
2019-06-07T22:00:29.242Z,1.02
2019-06-07T22:02:57.860Z,1.00
2019-06-07T22:05:26.438Z,0.95
2019-06-07T22:07:54.934Z,0.85
2019-06-07T22:10:23.521Z,1.10
2019-06-07T22:12:52.051Z,0.70
2019-06-07T22:15:33.098Z,0.85
2019-06-07T22:17:50.857Z,0.80
2019-06-07T22:20:20.007Z,1.00
2019-06-07T22:22:48.559Z,1.02
2019-06-07T22:25:17.108Z,1.05
2019-06-07T22:27:45.677Z,1.40
2019-06-07T22:30:14.792Z,1.10
2019-06-07T22:32:43.330Z,1.05
2019-06-07T22:35:12.992Z,0.90
2019-06-07T22:37:41.644Z,1.12
2019-06-07T22:40:10.770Z,0.80
2019-06-07T22:42:39.755Z,1.00
2019-06-07T22:45:10.875Z,0.90
2019-06-07T22:47:39.352Z,0.80
2019-06-07T22:50:11.058Z,0.90
2019-06-07T22:52:40.983Z,0.80
2019-06-07T22:55:11.916Z,0.80
2019-06-07T22:57:57.695Z,1.05
2019-06-07T23:00:28.633Z,1.12
2019-06-07T23:02:57.301Z,1.20
2019-06-07T23:05:25.940Z,1.10
2019-06-07T23:07:54.771Z,0.85
2019-06-07T23:10:23.383Z,1.42
2019-06-07T23:12:52.351Z,1.07
2019-06-07T23:15:21.076Z,1.10
2019-06-07T23:17:49.623Z,1.05
2019-06-07T23:20:20.186Z,0.80
2019-06-07T23:22:48.844Z,0.95
2019-06-07T23:25:22.402Z,0.90
2019-06-07T23:27:48.351Z,0.85
2019-06-07T23:30:18.737Z,0.98
2019-06-07T23:32:47.595Z,0.80
2019-06-07T23:35:17.334Z,0.65
2019-06-07T23:37:46.279Z,0.60
2019-06-07T23:40:17.370Z,0.78
2019-06-07T23:42:46.269Z,0.80
2019-06-07T23:45:15.523Z,0.80
2019-06-07T23:47:44.196Z,0.60
2019-06-07T23:50:13.615Z,0.53
2019-06-07T23:52:42.345Z,0.90
2019-06-07T23:55:11.843Z,0.80
2019-06-07T23:57:40.525Z,1.10
